createdAt,value
2023-09-27T00:00:50.249Z,16.38
2023-09-27T00:03:17.041Z,16.39
2023-09-27T00:05:43.715Z,16.40
2023-09-27T00:08:11.724Z,16.40
2023-09-27T00:10:38.190Z,16.39
2023-09-27T00:13:04.990Z,16.40
2023-09-27T00:15:31.481Z,16.42
2023-09-27T00:17:59.156Z,16.43
2023-09-27T00:20:25.708Z,16.44
2023-09-27T00:22:52.273Z,16.43
2023-09-27T00:25:19.927Z,16.40
2023-09-27T00:27:46.672Z,16.37
2023-09-27T00:30:14.730Z,16.33
2023-09-27T00:32:42.776Z,16.23
2023-09-27T00:35:12.903Z,16.15
2023-09-27T00:37:39.504Z,16.08
2023-09-27T00:40:10.871Z,16.04
2023-09-27T00:42:37.800Z,16.03
2023-09-27T00:45:05.933Z,16.01
2023-09-27T00:47:34.319Z,16.00
2023-09-27T00:50:02.108Z,16.00
2023-09-27T00:52:28.950Z,15.99
2023-09-27T00:54:57.109Z,15.99
2023-09-27T00:57:23.806Z,15.94
2023-09-27T00:59:50.431Z,15.92
2023-09-27T01:02:18.046Z,15.91
2023-09-27T01:04:44.741Z,15.86
2023-09-27T01:07:11.380Z,15.83
2023-09-27T01:09:38.471Z,15.82
2023-09-27T01:12:05.760Z,15.80
2023-09-27T01:14:32.358Z,15.83
2023-09-27T01:17:10.085Z,15.88
2023-09-27T01:19:38.864Z,15.88
2023-09-27T01:22:05.623Z,15.83
2023-09-27T01:24:33.478Z,15.81
2023-09-27T01:27:00.087Z,15.80
2023-09-27T01:29:26.923Z,15.80
2023-09-27T01:31:53.548Z,15.77
2023-09-27T01:34:20.598Z,15.75
2023-09-27T01:36:47.300Z,15.74
2023-09-27T01:39:13.952Z,15.73
2023-09-27T01:41:40.483Z,15.75
2023-09-27T01:44:07.230Z,15.79
2023-09-27T01:46:33.855Z,15.80
2023-09-27T01:49:01.002Z,15.77
2023-09-27T01:51:27.739Z,15.74
2023-09-27T01:53:54.334Z,15.72
2023-09-27T01:56:20.867Z,15.72
2023-09-27T01:58:47.593Z,15.71
2023-09-27T02:01:14.224Z,15.71
2023-09-27T02:03:43.260Z,15.74
2023-09-27T02:06:09.936Z,15.72
2023-09-27T02:08:36.730Z,15.72
2023-09-27T02:11:03.673Z,15.73
2023-09-27T02:13:30.303Z,15.76
2023-09-27T02:15:57.037Z,15.76
2023-09-27T02:18:23.745Z,15.75
2023-09-27T02:20:50.203Z,15.75
2023-09-27T02:23:16.852Z,15.74
2023-09-27T02:25:43.558Z,15.72
2023-09-27T02:28:10.980Z,15.69
2023-09-27T02:30:38.737Z,15.70
2023-09-27T02:33:05.425Z,15.70
2023-09-27T02:35:32.223Z,15.68
2023-09-27T02:37:59.013Z,15.66
2023-09-27T02:40:25.956Z,15.67
2023-09-27T02:42:54.457Z,15.69
2023-09-27T02:45:21.104Z,15.69
2023-09-27T02:47:48.343Z,15.70
2023-09-27T02:50:15.405Z,15.72
2023-09-27T02:52:42.238Z,15.73
2023-09-27T02:55:12.393Z,15.71
2023-09-27T02:57:39.220Z,15.69
2023-09-27T03:00:06.906Z,15.64
2023-09-27T03:02:34.036Z,15.62
2023-09-27T03:05:00.987Z,15.61
2023-09-27T03:10:17.563Z,15.24
2023-09-27T03:12:47.069Z,15.40
2023-09-27T03:15:14.081Z,15.36
2023-09-27T03:17:43.023Z,15.34
2023-09-27T03:20:16.595Z,15.31
2023-09-27T03:22:43.385Z,15.30
2023-09-27T03:25:10.411Z,15.26
2023-09-27T03:27:37.456Z,15.24
2023-09-27T03:30:05.145Z,15.26
2023-09-27T03:32:33.428Z,15.28
2023-09-27T03:35:00.368Z,15.24
2023-09-27T03:37:27.382Z,15.25
2023-09-27T03:39:54.056Z,15.23
2023-09-27T03:42:20.842Z,15.22
2023-09-27T03:44:50.935Z,15.19
2023-09-27T03:47:17.804Z,15.15
2023-09-27T03:49:44.682Z,15.14
2023-09-27T03:52:12.142Z,15.10
2023-09-27T03:54:38.883Z,15.08
2023-09-27T03:57:05.930Z,15.09
2023-09-27T03:59:32.698Z,15.09
2023-09-27T04:02:00.353Z,15.10
2023-09-27T04:04:27.232Z,15.14
2023-09-27T04:06:54.366Z,15.17
2023-09-27T04:09:21.068Z,15.19
2023-09-27T04:11:47.562Z,15.20
2023-09-27T04:14:14.198Z,15.20
2023-09-27T04:16:41.061Z,15.21
2023-09-27T04:19:08.761Z,15.25
2023-09-27T04:21:35.312Z,15.27
2023-09-27T04:24:04.296Z,15.28
2023-09-27T04:26:30.911Z,15.31
2023-09-27T04:28:57.424Z,15.32
2023-09-27T04:31:24.692Z,15.34
2023-09-27T04:33:52.076Z,15.36
2023-09-27T04:36:18.747Z,15.39
2023-09-27T04:38:46.168Z,15.41
2023-09-27T04:41:16.790Z,15.45
2023-09-27T04:43:44.153Z,15.48
2023-09-27T04:46:14.108Z,15.48
2023-09-27T04:48:40.636Z,15.49
2023-09-27T04:51:07.518Z,15.48
2023-09-27T04:53:37.724Z,15.49
2023-09-27T04:56:07.339Z,15.47
2023-09-27T04:58:35.249Z,15.42
2023-09-27T05:01:03.946Z,15.42
2023-09-27T05:03:30.854Z,15.39
2023-09-27T05:05:57.622Z,15.36
2023-09-27T05:08:26.625Z,15.34
2023-09-27T05:10:53.293Z,15.35
2023-09-27T05:13:22.138Z,15.40
2023-09-27T05:15:49.715Z,15.51
2023-09-27T05:18:16.419Z,15.59
2023-09-27T05:20:44.486Z,15.70
2023-09-27T05:23:11.818Z,15.76
2023-09-27T05:25:38.940Z,15.78
2023-09-27T05:28:05.715Z,15.79
2023-09-27T05:30:32.709Z,15.78
2023-09-27T05:32:59.326Z,15.78
2023-09-27T05:35:26.070Z,15.85
2023-09-27T05:37:53.353Z,15.93
2023-09-27T05:40:19.956Z,16.07
2023-09-27T05:42:47.253Z,16.14
2023-09-27T05:45:14.103Z,16.19
2023-09-27T05:47:40.916Z,16.32
2023-09-27T05:50:14.689Z,16.42
2023-09-27T05:52:44.130Z,16.44
2023-09-27T05:55:10.819Z,16.44
2023-09-27T05:57:37.394Z,16.47
2023-09-27T06:00:15.751Z,16.49
2023-09-27T06:02:43.736Z,16.52
2023-09-27T06:05:10.486Z,16.54
2023-09-27T06:07:37.419Z,16.60
2023-09-27T06:10:06.517Z,16.70
2023-09-27T06:12:34.097Z,16.79
2023-09-27T06:15:00.682Z,16.82
2023-09-27T06:17:27.828Z,16.97
2023-09-27T06:19:55.507Z,17.08
2023-09-27T06:22:23.643Z,17.15
2023-09-27T06:24:50.163Z,17.25
2023-09-27T06:27:17.506Z,17.29
2023-09-27T06:29:44.210Z,17.37
2023-09-27T06:32:11.549Z,17.52
2023-09-27T06:34:38.810Z,17.64
2023-09-27T06:37:07.923Z,17.64
2023-09-27T06:39:34.582Z,17.58
2023-09-27T06:42:01.132Z,17.56
2023-09-27T06:44:27.841Z,17.56
2023-09-27T06:46:55.043Z,17.60
2023-09-27T06:49:21.580Z,17.61
2023-09-27T06:51:48.776Z,17.71
2023-09-27T06:54:15.581Z,17.81
2023-09-27T06:56:43.143Z,17.92
2023-09-27T06:59:10.355Z,18.12
2023-09-27T07:01:37.101Z,18.21
2023-09-27T07:04:04.701Z,18.26
2023-09-27T07:06:31.479Z,18.21
2023-09-27T07:08:58.398Z,18.21
2023-09-27T07:11:24.972Z,18.33
2023-09-27T07:13:52.598Z,18.42
2023-09-27T07:16:27.102Z,18.43
2023-09-27T07:18:54.291Z,18.47
2023-09-27T07:21:21.358Z,18.47
2023-09-27T07:23:49.971Z,18.45
2023-09-27T07:26:19.906Z,18.51
2023-09-27T07:28:46.803Z,18.51
2023-09-27T07:31:17.724Z,18.62
2023-09-27T07:33:46.047Z,18.76
2023-09-27T07:36:13.119Z,18.82
2023-09-27T07:38:40.148Z,18.90
2023-09-27T07:41:09.197Z,18.98
2023-09-27T07:43:36.896Z,19.04
2023-09-27T07:46:07.168Z,19.16
2023-09-27T07:48:35.808Z,19.30
2023-09-27T07:51:03.457Z,19.33
2023-09-27T07:53:30.388Z,19.49
2023-09-27T07:55:58.046Z,19.55
2023-09-27T07:58:24.921Z,19.61
2023-09-27T08:00:51.748Z,19.71
2023-09-27T08:03:19.919Z,19.81
2023-09-27T08:05:46.955Z,19.84
2023-09-27T08:08:17.240Z,19.96
2023-09-27T08:10:43.968Z,20.05
2023-09-27T08:13:12.192Z,20.04
2023-09-27T08:15:40.178Z,20.19
2023-09-27T08:18:07.668Z,20.23
2023-09-27T08:20:35.754Z,20.21
2023-09-27T08:23:03.423Z,20.21
2023-09-27T08:25:30.820Z,20.27
2023-09-27T08:27:57.571Z,20.32
2023-09-27T08:30:24.432Z,20.33
2023-09-27T08:32:52.084Z,20.30
2023-09-27T08:35:19.384Z,20.35
2023-09-27T08:37:46.308Z,20.58
2023-09-27T08:40:15.902Z,20.57
2023-09-27T08:42:43.532Z,20.56
2023-09-27T08:45:12.714Z,20.64
2023-09-27T08:47:41.859Z,20.72
2023-09-27T08:50:11.982Z,20.83
2023-09-27T08:52:38.922Z,20.96
2023-09-27T08:55:07.422Z,21.13
2023-09-27T08:57:34.292Z,21.12
2023-09-27T09:00:01.129Z,21.06
2023-09-27T09:02:28.004Z,21.04
2023-09-27T09:04:55.281Z,21.19
2023-09-27T09:07:21.848Z,21.23
2023-09-27T09:09:49.330Z,21.13
2023-09-27T09:12:34.968Z,21.17
2023-09-27T09:15:05.570Z,21.36
2023-09-27T09:17:35.669Z,21.28
2023-09-27T09:20:16.917Z,21.13
2023-09-27T09:22:49.880Z,21.20
2023-09-27T09:25:16.522Z,21.33
2023-09-27T09:27:45.644Z,21.39
2023-09-27T09:30:13.041Z,21.50
2023-09-27T09:32:57.863Z,21.55
2023-09-27T09:35:32.416Z,21.62
2023-09-27T09:38:00.363Z,21.60
2023-09-27T09:40:27.192Z,21.53
2023-09-27T09:42:53.858Z,21.49
2023-09-27T09:45:20.873Z,21.58
2023-09-27T09:47:47.699Z,21.78
2023-09-27T09:50:19.117Z,21.82
2023-09-27T09:52:57.982Z,21.90
2023-09-27T09:55:52.033Z,21.91
2023-09-27T09:58:31.986Z,22.04
2023-09-27T10:00:58.993Z,22.24
2023-09-27T10:03:28.053Z,22.24
2023-09-27T10:05:55.517Z,22.30
2023-09-27T10:08:23.715Z,22.38
2023-09-27T10:10:50.251Z,22.41
2023-09-27T10:13:18.816Z,22.36
2023-09-27T10:15:45.552Z,22.26
2023-09-27T10:18:24.413Z,22.18
2023-09-27T10:21:07.608Z,22.37
2023-09-27T10:23:58.206Z,22.62
2023-09-27T10:26:27.951Z,22.68
2023-09-27T10:29:04.092Z,22.73
2023-09-27T10:31:31.527Z,22.67
2023-09-27T10:33:58.124Z,22.69
2023-09-27T10:36:24.716Z,22.71
2023-09-27T10:38:51.375Z,22.74
2023-09-27T10:41:34.003Z,22.66
2023-09-27T10:44:02.450Z,22.79
2023-09-27T10:47:09.617Z,22.85
2023-09-27T10:49:39.834Z,22.93
2023-09-27T10:52:16.734Z,23.01
2023-09-27T10:54:44.294Z,23.07
2023-09-27T10:57:10.982Z,23.11
2023-09-27T10:59:37.518Z,23.14
2023-09-27T11:02:04.436Z,23.17
2023-09-27T11:04:33.111Z,23.25
2023-09-27T11:06:59.974Z,23.35
2023-09-27T11:09:27.696Z,23.40
2023-09-27T11:11:54.915Z,23.49
2023-09-27T11:14:28.550Z,23.47
2023-09-27T11:16:55.290Z,23.57
2023-09-27T11:19:29.178Z,23.59
2023-09-27T11:21:55.815Z,23.58
2023-09-27T11:24:22.777Z,23.47
2023-09-27T11:26:49.484Z,23.53
2023-09-27T11:29:16.833Z,23.80
2023-09-27T11:31:43.427Z,23.90
2023-09-27T11:34:17.063Z,23.85
2023-09-27T11:36:53.994Z,23.95
2023-09-27T11:39:28.429Z,23.94
2023-09-27T11:41:59.394Z,23.79
2023-09-27T11:44:27.043Z,23.61
2023-09-27T11:47:05.495Z,23.55
2023-09-27T11:49:33.354Z,23.69
2023-09-27T11:52:03.471Z,23.91
2023-09-27T11:54:30.378Z,24.07
2023-09-27T11:56:57.272Z,24.22
2023-09-27T11:59:24.286Z,24.39
2023-09-27T12:01:51.015Z,24.49
2023-09-27T12:04:19.560Z,24.61
2023-09-27T12:06:46.616Z,24.79
2023-09-27T12:09:15.024Z,24.82
2023-09-27T12:11:41.932Z,24.56
2023-09-27T12:14:08.670Z,24.34
2023-09-27T12:16:35.477Z,24.37
2023-09-27T12:19:03.334Z,24.46
2023-09-27T12:21:35.020Z,24.42
2023-09-27T12:24:03.102Z,24.38
2023-09-27T12:26:30.770Z,24.43
2023-09-27T12:28:57.871Z,24.36
2023-09-27T12:31:24.949Z,24.32
2023-09-27T12:33:51.883Z,24.42
2023-09-27T12:36:18.727Z,24.59
2023-09-27T12:38:45.376Z,24.74
2023-09-27T12:41:12.150Z,24.72
2023-09-27T12:43:40.251Z,24.74
2023-09-27T12:46:07.269Z,24.53
2023-09-27T12:48:35.249Z,24.50
2023-09-27T12:51:02.560Z,24.56
2023-09-27T12:53:30.291Z,24.59
2023-09-27T12:55:56.918Z,24.61
2023-09-27T12:58:23.578Z,24.47
2023-09-27T13:00:50.307Z,24.51
2023-09-27T13:03:17.099Z,24.65
2023-09-27T13:05:43.964Z,24.68
2023-09-27T13:08:10.758Z,24.81
2023-09-27T13:10:39.366Z,25.12
2023-09-27T13:13:05.931Z,25.21
2023-09-27T13:15:35.517Z,25.18
2023-09-27T13:18:02.833Z,25.15
2023-09-27T13:20:29.756Z,25.32
2023-09-27T13:22:56.387Z,25.33
2023-09-27T13:25:22.991Z,25.42
2023-09-27T13:27:49.680Z,25.84
2023-09-27T13:30:33.152Z,25.94
2023-09-27T13:33:03.488Z,25.55
2023-09-27T13:35:31.006Z,25.38
2023-09-27T13:37:59.138Z,25.47
2023-09-27T13:40:25.684Z,25.56
2023-09-27T13:42:52.337Z,25.69
2023-09-27T13:45:19.076Z,25.93
2023-09-27T13:47:46.783Z,26.18
2023-09-27T13:50:13.688Z,26.39
2023-09-27T13:52:41.221Z,26.33
2023-09-27T13:55:11.651Z,26.35
2023-09-27T13:57:41.631Z,26.31
2023-09-27T14:00:09.501Z,26.09
2023-09-27T14:02:36.582Z,26.10
2023-09-27T14:05:04.062Z,26.05
2023-09-27T14:07:31.872Z,25.99
2023-09-27T14:09:58.665Z,25.89
2023-09-27T14:12:25.416Z,25.65
2023-09-27T14:14:52.373Z,25.56
2023-09-27T14:17:19.790Z,25.60
2023-09-27T14:19:46.418Z,25.77
2023-09-27T14:22:13.772Z,25.83
2023-09-27T14:24:40.231Z,25.91
2023-09-27T14:27:07.853Z,25.92
2023-09-27T14:29:36.022Z,25.83
2023-09-27T14:32:06.641Z,25.64
2023-09-27T14:37:08.139Z,25.49
2023-09-27T14:39:35.617Z,25.49
2023-09-27T14:42:03.408Z,25.49
2023-09-27T14:44:31.419Z,25.56
2023-09-27T14:46:58.192Z,25.53
2023-09-27T14:49:25.322Z,25.66
2023-09-27T14:51:52.901Z,25.64
2023-09-27T14:54:19.578Z,25.57
2023-09-27T14:56:47.003Z,25.57
2023-09-27T14:59:13.586Z,25.61
2023-09-27T15:01:40.233Z,25.54
2023-09-27T15:04:07.454Z,25.36
2023-09-27T15:06:34.064Z,25.38
2023-09-27T15:09:00.729Z,25.49
2023-09-27T15:11:27.333Z,25.48
2023-09-27T15:13:54.387Z,25.25
2023-09-27T15:16:21.376Z,25.03
2023-09-27T15:18:48.398Z,24.85
2023-09-27T15:21:15.023Z,24.62
2023-09-27T15:23:42.139Z,24.36
2023-09-27T15:27:25.558Z,23.87
2023-09-27T15:29:52.960Z,23.87
2023-09-27T15:32:20.360Z,23.63
2023-09-27T15:34:49.263Z,23.35
2023-09-27T15:37:16.816Z,23.05
2023-09-27T15:39:44.245Z,22.73
2023-09-27T15:42:11.965Z,22.47
2023-09-27T15:44:40.129Z,22.26
2023-09-27T15:47:08.408Z,22.03
2023-09-27T15:49:36.230Z,21.83
2023-09-27T15:52:03.775Z,21.66
2023-09-27T15:54:31.139Z,21.51
2023-09-27T15:56:58.569Z,21.37
2023-09-27T15:59:26.067Z,21.26
2023-09-27T16:01:53.654Z,21.16
2023-09-27T16:04:21.101Z,21.05
2023-09-27T16:06:48.565Z,20.95
2023-09-27T16:09:16.651Z,20.85
2023-09-27T16:11:44.552Z,20.76
2023-09-27T16:14:13.252Z,20.67
2023-09-27T16:16:40.908Z,20.58
2023-09-27T16:19:11.120Z,20.51
2023-09-27T16:21:38.618Z,20.43
2023-09-27T16:24:06.302Z,20.37
2023-09-27T16:26:33.847Z,20.31
2023-09-27T16:29:01.763Z,20.26
2023-09-27T16:31:34.030Z,20.29
2023-09-27T16:34:02.348Z,20.36
2023-09-27T16:36:30.722Z,20.25
2023-09-27T16:38:58.345Z,20.14
2023-09-27T16:41:25.848Z,20.06
2023-09-27T16:43:53.550Z,20.09
2023-09-27T16:46:21.228Z,20.15
2023-09-27T16:48:49.201Z,20.01
2023-09-27T16:51:16.763Z,19.90
2023-09-27T16:53:44.475Z,19.98
2023-09-27T16:56:12.408Z,19.97
2023-09-27T16:58:39.932Z,19.85
2023-09-27T17:01:07.475Z,19.83
2023-09-27T17:03:35.091Z,19.94
2023-09-27T17:06:04.081Z,19.96
2023-09-27T17:08:31.495Z,19.86
2023-09-27T17:10:58.999Z,19.79
2023-09-27T17:13:26.507Z,19.88
2023-09-27T17:15:54.035Z,19.93
2023-09-27T17:18:21.613Z,19.89
2023-09-27T17:20:49.072Z,19.78
2023-09-27T17:23:16.485Z,19.75
2023-09-27T17:25:44.032Z,19.87
2023-09-27T17:28:13.612Z,19.88
2023-09-27T17:30:41.740Z,19.73
2023-09-27T17:33:09.384Z,19.63
2023-09-27T17:35:36.914Z,19.58
2023-09-27T17:38:04.614Z,19.72
2023-09-27T17:40:32.092Z,19.75
2023-09-27T17:42:59.634Z,19.63
2023-09-27T17:45:27.308Z,19.55
2023-09-27T17:47:54.810Z,19.48
2023-09-27T17:50:22.378Z,19.46
2023-09-27T17:52:50.122Z,19.44
2023-09-27T17:55:17.700Z,19.43
2023-09-27T17:57:45.147Z,19.41
2023-09-27T18:00:13.688Z,19.38
2023-09-27T18:02:41.613Z,19.36
2023-09-27T18:05:11.518Z,19.36
2023-09-27T18:07:38.997Z,19.35
2023-09-27T18:10:07.278Z,19.34
2023-09-27T18:12:34.691Z,19.33
2023-09-27T18:15:17.509Z,19.31
2023-09-27T18:17:53.318Z,19.31
2023-09-27T18:20:20.854Z,19.27
2023-09-27T18:22:48.274Z,19.25
2023-09-27T18:25:15.750Z,19.23
2023-09-27T18:27:43.392Z,19.20
2023-09-27T18:30:11.313Z,19.16
2023-09-27T18:32:38.826Z,19.13
2023-09-27T18:35:06.771Z,19.09
2023-09-27T18:37:34.649Z,19.04
2023-09-27T18:40:02.133Z,19.01
2023-09-27T18:42:29.543Z,18.99
2023-09-27T18:44:56.954Z,18.97
2023-09-27T18:47:24.623Z,18.94
2023-09-27T18:49:52.158Z,18.87
2023-09-27T18:52:19.799Z,18.85
2023-09-27T18:54:49.041Z,18.84
2023-09-27T18:57:16.616Z,18.82
2023-09-27T18:59:44.215Z,18.81
2023-09-27T19:02:11.846Z,18.79
2023-09-27T19:04:39.238Z,18.77
2023-09-27T19:07:06.882Z,18.75
2023-09-27T19:09:34.406Z,18.72
2023-09-27T19:12:01.965Z,18.67
2023-09-27T19:14:29.433Z,18.58
2023-09-27T19:16:57.103Z,18.52
2023-09-27T19:19:24.850Z,18.46
2023-09-27T19:21:52.925Z,18.41
2023-09-27T19:24:20.626Z,18.38
2023-09-27T19:26:48.156Z,18.39
2023-09-27T19:29:15.637Z,18.40
2023-09-27T19:31:43.177Z,18.40
2023-09-27T19:34:10.934Z,18.42
2023-09-27T19:36:38.518Z,18.43
2023-09-27T19:39:06.266Z,18.42
2023-09-27T19:41:33.830Z,18.42
2023-09-27T19:44:01.296Z,18.41
2023-09-27T19:46:29.057Z,18.42
2023-09-27T19:48:56.606Z,18.42
2023-09-27T19:51:27.748Z,18.40
2023-09-27T19:53:56.414Z,18.37
2023-09-27T19:56:24.211Z,18.37
2023-09-27T19:58:51.720Z,18.36
2023-09-27T20:01:27.463Z,18.34
2023-09-27T20:03:55.690Z,18.32
2023-09-27T20:06:23.597Z,18.30
2023-09-27T20:08:51.457Z,18.28
2023-09-27T20:11:18.881Z,18.26
2023-09-27T20:13:46.923Z,18.25
2023-09-27T20:16:14.552Z,18.25
2023-09-27T20:18:42.175Z,18.26
2023-09-27T20:21:09.729Z,18.26
2023-09-27T20:23:38.275Z,18.28
2023-09-27T20:26:06.633Z,18.28
2023-09-27T20:28:34.282Z,18.25
2023-09-27T20:31:02.066Z,18.24
2023-09-27T20:33:29.691Z,18.19
2023-09-27T20:35:57.178Z,18.18
2023-09-27T20:38:24.708Z,18.14
2023-09-27T20:40:52.200Z,18.10
2023-09-27T20:43:19.632Z,18.07
2023-09-27T20:45:47.131Z,18.05
2023-09-27T20:48:14.746Z,18.00
2023-09-27T20:50:42.341Z,17.97
2023-09-27T20:53:09.900Z,18.00
2023-09-27T20:55:37.511Z,18.10
2023-09-27T20:58:05.153Z,18.03
2023-09-27T21:00:32.757Z,17.95
2023-09-27T21:03:01.640Z,17.90
2023-09-27T21:05:33.928Z,17.85
2023-09-27T21:08:01.624Z,17.83
2023-09-27T21:10:29.148Z,17.81
2023-09-27T21:12:56.792Z,17.80
2023-09-27T21:15:24.470Z,17.77
2023-09-27T21:17:51.988Z,17.76
2023-09-27T21:20:19.387Z,17.76
2023-09-27T21:22:46.807Z,17.91
2023-09-27T21:25:14.707Z,17.87
2023-09-27T21:27:42.374Z,17.78
2023-09-27T21:30:10.881Z,17.73
2023-09-27T21:32:38.555Z,17.68
2023-09-27T21:35:07.163Z,17.64
2023-09-27T21:37:34.805Z,17.62
2023-09-27T21:40:02.370Z,17.61
2023-09-27T21:42:29.988Z,17.73
2023-09-27T21:44:57.757Z,17.75
2023-09-27T21:47:25.418Z,17.66
2023-09-27T21:49:52.838Z,17.59
2023-09-27T21:52:20.479Z,17.54
2023-09-27T21:54:48.046Z,17.49
2023-09-27T21:57:16.288Z,17.45
2023-09-27T21:59:43.839Z,17.40
2023-09-27T22:02:12.815Z,17.52
2023-09-27T22:04:40.405Z,17.50
2023-09-27T22:07:08.182Z,17.44
2023-09-27T22:09:35.752Z,17.41
2023-09-27T22:12:03.490Z,17.38
2023-09-27T22:14:31.540Z,17.36
2023-09-27T22:17:04.044Z,17.35
2023-09-27T22:19:31.606Z,17.49
2023-09-27T22:21:59.802Z,17.45
2023-09-27T22:24:31.781Z,17.38
2023-09-27T22:26:59.522Z,17.34
2023-09-27T22:29:26.899Z,17.31
2023-09-27T22:31:59.082Z,17.27
2023-09-27T22:34:35.686Z,17.26
2023-09-27T22:37:03.157Z,17.38
2023-09-27T22:39:32.798Z,17.41
2023-09-27T22:42:03.768Z,17.28
2023-09-27T22:44:34.298Z,17.19
2023-09-27T22:47:01.986Z,17.14
2023-09-27T22:49:29.469Z,17.10
2023-09-27T22:51:57.062Z,17.08
2023-09-27T22:54:24.502Z,17.23
2023-09-27T22:56:53.590Z,17.29
2023-09-27T22:59:22.951Z,17.22
2023-09-27T23:01:56.406Z,17.15
2023-09-27T23:04:24.792Z,17.10
2023-09-27T23:07:02.720Z,17.08
2023-09-27T23:09:37.293Z,17.23
2023-09-27T23:12:18.496Z,17.24
2023-09-27T23:15:04.989Z,17.15
2023-09-27T23:17:52.396Z,17.09
2023-09-27T23:20:28.798Z,17.04
2023-09-27T23:22:59.592Z,17.15
2023-09-27T23:25:40.452Z,17.27
2023-09-27T23:28:08.244Z,17.17
2023-09-27T23:30:35.819Z,17.08
2023-09-27T23:33:04.316Z,17.01
2023-09-27T23:35:32.481Z,16.95
2023-09-27T23:38:11.138Z,16.93
2023-09-27T23:40:43.065Z,17.08
2023-09-27T23:43:17.300Z,17.11
2023-09-27T23:45:46.872Z,17.01
2023-09-27T23:48:14.565Z,16.91
2023-09-27T23:50:42.480Z,16.86
2023-09-27T23:53:11.449Z,16.85
2023-09-27T23:55:42.570Z,16.99
2023-09-27T23:58:14.045Z,17.06
